createdAt,value
2022-09-16T00:00:11.662Z,98.57
2022-09-16T00:01:15.931Z,98.60
2022-09-16T00:02:20.285Z,98.57
2022-09-16T00:03:24.624Z,98.53
2022-09-16T00:04:28.910Z,98.47
2022-09-16T00:05:33.337Z,98.51
2022-09-16T00:06:37.506Z,98.45
2022-09-16T00:07:41.896Z,98.52
2022-09-16T00:08:46.214Z,98.49
2022-09-16T00:09:50.527Z,98.45
2022-09-16T00:10:54.769Z,98.46
2022-09-16T00:11:59.067Z,98.56
2022-09-16T00:13:03.429Z,98.60
2022-09-16T00:14:07.881Z,98.72
2022-09-16T00:15:12.171Z,98.67
2022-09-16T00:16:16.503Z,98.72
2022-09-16T00:17:20.784Z,98.87
2022-09-16T00:18:25.125Z,98.92
2022-09-16T00:19:29.466Z,98.90
2022-09-16T00:20:33.673Z,98.90
2022-09-16T00:21:38.052Z,99.08
2022-09-16T00:22:42.331Z,99.17
2022-09-16T00:23:46.651Z,99.20
2022-09-16T00:24:50.948Z,99.18
2022-09-16T00:25:55.272Z,99.21
2022-09-16T00:26:59.590Z,99.23
2022-09-16T00:28:03.812Z,99.36
2022-09-16T00:29:08.236Z,99.40
2022-09-16T00:30:12.538Z,99.42
2022-09-16T00:31:16.847Z,99.41
2022-09-16T00:32:21.028Z,99.60
2022-09-16T00:33:25.396Z,99.60
2022-09-16T00:34:29.559Z,99.75
2022-09-16T00:35:33.847Z,99.68
2022-09-16T00:36:38.216Z,99.63
2022-09-16T00:37:42.441Z,99.78
2022-09-16T00:38:46.864Z,99.83
2022-09-16T00:39:51.134Z,99.98
2022-09-16T00:40:55.420Z,99.92
2022-09-16T00:41:59.715Z,99.89
2022-09-16T00:43:04.044Z,99.96
2022-09-16T00:44:08.345Z,100.00
2022-09-16T00:45:12.664Z,99.97
2022-09-16T00:46:17.039Z,100.00
2022-09-16T00:47:21.359Z,99.97
2022-09-16T00:48:25.535Z,100.00
2022-09-16T00:49:29.958Z,100.00
2022-09-16T00:50:34.288Z,100.00
2022-09-16T00:51:38.608Z,100.00
2022-09-16T00:52:42.834Z,100.00
2022-09-16T00:53:50.181Z,100.00
2022-09-16T00:54:53.491Z,100.00
2022-09-16T00:55:57.821Z,100.00
2022-09-16T00:57:02.164Z,100.00
2022-09-16T00:58:06.466Z,100.00
2022-09-16T00:59:10.680Z,100.00
2022-09-16T01:00:15.032Z,100.00
2022-09-16T01:01:19.397Z,100.00
2022-09-16T01:02:23.681Z,100.00
2022-09-16T01:03:27.948Z,100.00
2022-09-16T01:04:32.228Z,100.00
2022-09-16T01:05:36.555Z,100.00
2022-09-16T01:06:40.884Z,100.00
2022-09-16T01:07:45.198Z,100.00
2022-09-16T01:08:49.501Z,100.00
2022-09-16T01:09:53.831Z,100.00
2022-09-16T01:10:58.158Z,100.00
2022-09-16T01:12:02.397Z,100.00
2022-09-16T01:13:06.654Z,100.00
2022-09-16T01:14:11.016Z,100.00
2022-09-16T01:15:15.323Z,100.00
2022-09-16T01:16:19.572Z,100.00
2022-09-16T01:17:23.791Z,100.00
2022-09-16T01:18:28.065Z,100.00
2022-09-16T01:19:32.372Z,100.00
2022-09-16T01:20:36.707Z,100.00
2022-09-16T01:21:41.046Z,100.00
2022-09-16T01:22:45.343Z,100.00
2022-09-16T01:23:49.715Z,100.00
2022-09-16T01:24:54.043Z,100.00
2022-09-16T01:25:58.342Z,100.00
2022-09-16T01:27:02.663Z,100.00
2022-09-16T01:28:06.954Z,100.00
2022-09-16T01:29:11.260Z,100.00
2022-09-16T01:30:15.551Z,100.00
2022-09-16T01:31:19.919Z,100.00
2022-09-16T01:32:24.190Z,100.00
2022-09-16T01:33:28.421Z,100.00
2022-09-16T01:34:32.911Z,100.00
2022-09-16T01:35:37.224Z,100.00
2022-09-16T01:36:41.536Z,100.00
2022-09-16T01:37:45.910Z,100.00
2022-09-16T01:38:50.335Z,100.00
2022-09-16T01:39:54.775Z,100.00
2022-09-16T01:40:59.071Z,100.00
2022-09-16T01:42:03.333Z,100.00
2022-09-16T01:43:07.648Z,100.00
2022-09-16T01:44:11.988Z,100.00
2022-09-16T01:45:16.302Z,100.00
2022-09-16T01:46:20.688Z,100.00
2022-09-16T01:47:24.912Z,100.00
2022-09-16T01:48:29.229Z,100.00
2022-09-16T01:49:33.538Z,100.00
2022-09-16T01:50:37.941Z,100.00
2022-09-16T01:51:42.328Z,100.00
2022-09-16T01:52:46.541Z,100.00
2022-09-16T01:53:50.869Z,100.00
2022-09-16T01:54:55.253Z,100.00
2022-09-16T01:55:59.414Z,100.00
2022-09-16T01:57:03.890Z,100.00
2022-09-16T01:58:08.152Z,100.00
2022-09-16T01:59:12.466Z,100.00
2022-09-16T02:00:16.754Z,100.00
2022-09-16T02:01:21.040Z,100.00
2022-09-16T02:02:25.500Z,100.00
2022-09-16T02:03:29.646Z,100.00
2022-09-16T02:04:34.006Z,100.00
2022-09-16T02:05:38.283Z,100.00
2022-09-16T02:06:42.517Z,100.00
2022-09-16T02:07:46.811Z,100.00
2022-09-16T02:08:51.174Z,100.00
2022-09-16T02:09:55.489Z,100.00
2022-09-16T02:10:59.819Z,100.00
2022-09-16T02:12:04.122Z,100.00
2022-09-16T02:13:08.446Z,100.00
2022-09-16T02:14:12.790Z,100.00
2022-09-16T02:15:17.067Z,100.00
2022-09-16T02:16:21.299Z,100.00
2022-09-16T02:17:25.672Z,100.00
2022-09-16T02:18:29.970Z,100.00
2022-09-16T02:19:34.279Z,100.00
2022-09-16T02:20:38.491Z,100.00
2022-09-16T02:21:45.862Z,100.00
2022-09-16T02:22:47.113Z,100.00
2022-09-16T02:23:51.555Z,100.00
2022-09-16T02:24:55.773Z,100.00
2022-09-16T02:26:00.031Z,100.00
2022-09-16T02:27:04.404Z,100.00
2022-09-16T02:28:08.645Z,100.00
2022-09-16T02:29:12.923Z,100.00
2022-09-16T02:30:17.197Z,100.00
2022-09-16T02:31:21.502Z,100.00
2022-09-16T02:32:25.823Z,100.00
2022-09-16T02:33:30.303Z,100.00
2022-09-16T02:34:34.641Z,100.00
2022-09-16T02:35:38.904Z,100.00
2022-09-16T02:36:43.007Z,100.00
2022-09-16T02:37:47.439Z,100.00
2022-09-16T02:38:51.787Z,100.00
2022-09-16T02:39:56.255Z,100.00
2022-09-16T02:41:00.240Z,100.00
2022-09-16T02:42:04.536Z,100.00
2022-09-16T02:43:08.944Z,100.00
2022-09-16T02:44:13.147Z,100.00
2022-09-16T02:45:17.492Z,100.00
2022-09-16T02:46:21.971Z,100.00
2022-09-16T02:47:26.029Z,100.00
2022-09-16T02:48:30.444Z,100.00
2022-09-16T02:49:34.834Z,100.00
2022-09-16T02:50:39.197Z,100.00
2022-09-16T02:51:43.515Z,100.00
2022-09-16T02:52:47.960Z,100.00
2022-09-16T02:53:52.145Z,100.00
2022-09-16T02:54:56.548Z,100.00
2022-09-16T02:56:00.884Z,100.00
2022-09-16T02:57:05.075Z,100.00
2022-09-16T02:58:09.414Z,100.00
2022-09-16T02:59:13.728Z,100.00
2022-09-16T03:00:32.029Z,100.00
2022-09-16T03:01:35.226Z,100.00
2022-09-16T03:02:39.680Z,100.00
2022-09-16T03:03:43.894Z,100.00
2022-09-16T03:04:48.319Z,100.00
2022-09-16T03:05:52.466Z,100.00
2022-09-16T03:06:56.768Z,100.00
2022-09-16T03:08:01.082Z,100.00
2022-09-16T03:09:05.479Z,100.00
2022-09-16T03:10:09.701Z,100.00
2022-09-16T03:11:13.976Z,100.00
2022-09-16T03:12:18.256Z,100.00
2022-09-16T03:13:22.504Z,100.00
2022-09-16T03:14:26.882Z,100.00
2022-09-16T03:15:31.188Z,100.00
2022-09-16T03:16:35.501Z,100.00
2022-09-16T03:17:39.866Z,100.00
2022-09-16T03:18:44.249Z,100.00
2022-09-16T03:19:48.498Z,100.00
2022-09-16T03:20:52.844Z,100.00
2022-09-16T03:21:57.156Z,100.00
2022-09-16T03:23:01.371Z,100.00
2022-09-16T03:24:05.609Z,100.00
2022-09-16T03:25:10.007Z,100.00
2022-09-16T03:26:14.318Z,100.00
2022-09-16T03:27:18.671Z,100.00
2022-09-16T03:28:22.958Z,100.00
2022-09-16T03:29:27.269Z,100.00
2022-09-16T03:30:31.663Z,100.00
2022-09-16T03:31:36.028Z,100.00
2022-09-16T03:32:40.323Z,100.00
2022-09-16T03:33:44.626Z,100.00
2022-09-16T03:34:48.935Z,100.00
2022-09-16T03:35:53.243Z,100.00
2022-09-16T03:36:57.443Z,100.00
2022-09-16T03:38:01.812Z,100.00
2022-09-16T03:39:06.132Z,100.00
2022-09-16T03:40:10.592Z,100.00
2022-09-16T03:41:14.732Z,100.00
2022-09-16T03:42:19.135Z,100.00
2022-09-16T03:43:23.445Z,100.00
2022-09-16T03:44:27.746Z,100.00
2022-09-16T03:45:32.122Z,100.00
2022-09-16T03:46:36.377Z,100.00
2022-09-16T03:47:40.600Z,100.00
2022-09-16T03:48:44.956Z,100.00
2022-09-16T03:49:52.159Z,100.00
2022-09-16T03:50:55.537Z,100.00
2022-09-16T03:51:59.712Z,100.00
2022-09-16T03:53:04.082Z,100.00
2022-09-16T03:54:08.343Z,100.00
2022-09-16T03:55:12.608Z,100.00
2022-09-16T03:56:16.906Z,100.00
2022-09-16T03:57:21.238Z,100.00
2022-09-16T03:58:25.432Z,100.00
2022-09-16T03:59:29.750Z,100.00
2022-09-16T04:00:34.088Z,100.00
2022-09-16T04:01:38.415Z,100.00
2022-09-16T04:02:42.649Z,100.00
2022-09-16T04:03:46.870Z,100.00
2022-09-16T04:04:51.218Z,100.00
2022-09-16T04:05:55.498Z,100.00
2022-09-16T04:06:59.854Z,100.00
2022-09-16T04:08:04.169Z,100.00
2022-09-16T04:09:08.453Z,100.00
2022-09-16T04:10:12.737Z,100.00
2022-09-16T04:11:17.034Z,100.00
2022-09-16T04:12:21.345Z,100.00
2022-09-16T04:13:25.517Z,100.00
2022-09-16T04:14:29.871Z,100.00
2022-09-16T04:15:35.219Z,100.00
2022-09-16T04:16:41.760Z,100.00
2022-09-16T04:17:42.662Z,100.00
2022-09-16T04:18:46.954Z,100.00
2022-09-16T04:19:51.214Z,100.00
2022-09-16T04:20:55.484Z,100.00
2022-09-16T04:21:59.820Z,100.00
2022-09-16T04:23:04.052Z,100.00
2022-09-16T04:24:12.197Z,100.00
2022-09-16T04:25:12.532Z,100.00
2022-09-16T04:26:16.763Z,100.00
2022-09-16T04:27:21.049Z,100.00
2022-09-16T04:28:25.276Z,100.00
2022-09-16T04:29:29.681Z,100.00
2022-09-16T04:30:34.068Z,100.00
2022-09-16T04:31:38.268Z,100.00
2022-09-16T04:32:42.558Z,100.00
2022-09-16T04:33:46.841Z,100.00
2022-09-16T04:34:51.155Z,100.00
2022-09-16T04:35:55.509Z,100.00
2022-09-16T04:36:59.738Z,100.00
2022-09-16T04:38:04.002Z,100.00
2022-09-16T04:39:08.224Z,100.00
2022-09-16T04:40:13.532Z,100.00
2022-09-16T04:41:17.408Z,100.00
2022-09-16T04:42:21.673Z,100.00
2022-09-16T04:43:25.950Z,100.00
2022-09-16T04:44:30.290Z,100.00
2022-09-16T04:45:34.513Z,100.00
2022-09-16T04:46:38.859Z,100.00
2022-09-16T04:47:43.053Z,100.00
2022-09-16T04:48:47.423Z,100.00
2022-09-16T04:49:51.648Z,100.00
2022-09-16T04:50:55.874Z,100.00
2022-09-16T04:52:00.212Z,100.00
2022-09-16T04:53:04.434Z,100.00
2022-09-16T04:54:08.716Z,100.00
2022-09-16T04:55:12.995Z,100.00
2022-09-16T04:56:17.302Z,100.00
2022-09-16T04:57:21.619Z,100.00
2022-09-16T04:58:25.834Z,100.00
2022-09-16T04:59:30.089Z,100.00
2022-09-16T05:00:34.333Z,100.00
2022-09-16T05:01:38.669Z,100.00
2022-09-16T05:02:42.902Z,100.00
2022-09-16T05:03:47.336Z,100.00
2022-09-16T05:04:51.412Z,100.00
2022-09-16T05:05:55.840Z,100.00
2022-09-16T05:07:00.049Z,100.00
2022-09-16T05:08:04.384Z,100.00
2022-09-16T05:09:08.655Z,100.00
2022-09-16T05:10:12.791Z,100.00
2022-09-16T05:11:17.101Z,100.00
2022-09-16T05:12:21.347Z,100.00
2022-09-16T05:13:25.602Z,100.00
2022-09-16T05:14:29.857Z,100.00
2022-09-16T05:15:34.205Z,100.00
2022-09-16T05:16:38.473Z,100.00
2022-09-16T05:17:51.539Z,100.00
2022-09-16T05:18:46.978Z,100.00
2022-09-16T05:19:51.359Z,100.00
2022-09-16T05:20:55.560Z,100.00
2022-09-16T05:21:59.920Z,100.00
2022-09-16T05:23:04.162Z,100.00
2022-09-16T05:24:08.430Z,100.00
2022-09-16T05:25:12.708Z,100.00
2022-09-16T05:26:16.993Z,100.00
2022-09-16T05:27:21.208Z,100.00
2022-09-16T05:28:25.423Z,100.00
2022-09-16T05:29:29.886Z,100.00
2022-09-16T05:30:34.200Z,100.00
2022-09-16T05:31:38.404Z,100.00
2022-09-16T05:32:42.600Z,100.00
2022-09-16T05:33:46.992Z,100.00
2022-09-16T05:34:51.092Z,100.00
2022-09-16T05:35:55.498Z,100.00
2022-09-16T05:36:59.729Z,100.00
2022-09-16T05:38:03.942Z,100.00
2022-09-16T05:39:25.013Z,100.00
2022-09-16T05:40:12.539Z,100.00
2022-09-16T05:41:16.735Z,100.00
2022-09-16T05:42:21.111Z,100.00
2022-09-16T05:43:25.203Z,100.00
2022-09-16T05:44:29.589Z,100.00
2022-09-16T05:45:33.793Z,100.00
2022-09-16T05:46:38.146Z,100.00
2022-09-16T05:47:42.462Z,100.00
2022-09-16T05:48:46.607Z,100.00
2022-09-16T05:49:51.030Z,100.00
2022-09-16T05:50:55.280Z,100.00
2022-09-16T05:51:59.728Z,100.00
2022-09-16T05:53:03.723Z,100.00
2022-09-16T05:54:08.029Z,100.00
2022-09-16T05:55:12.414Z,100.00
2022-09-16T05:56:16.719Z,100.00
2022-09-16T05:57:21.040Z,100.00
2022-09-16T05:58:25.360Z,100.00
2022-09-16T05:59:29.484Z,100.00
2022-09-16T06:00:33.763Z,100.00
2022-09-16T06:01:38.169Z,100.00
2022-09-16T06:02:42.381Z,100.00
2022-09-16T06:03:46.701Z,100.00
2022-09-16T06:04:50.925Z,100.00
2022-09-16T06:05:55.170Z,100.00
2022-09-16T06:06:59.441Z,100.00
2022-09-16T06:08:03.773Z,100.00
2022-09-16T06:09:07.931Z,100.00
2022-09-16T06:10:12.309Z,100.00
2022-09-16T06:11:16.515Z,100.00
2022-09-16T06:12:20.821Z,100.00
2022-09-16T06:13:25.160Z,100.00
2022-09-16T06:14:29.439Z,100.00
2022-09-16T06:15:36.773Z,100.00
2022-09-16T06:16:40.055Z,100.00
2022-09-16T06:17:44.330Z,100.00
2022-09-16T06:18:48.578Z,100.00
2022-09-16T06:19:52.874Z,100.00
2022-09-16T06:20:57.153Z,100.00
2022-09-16T06:22:01.424Z,100.00
2022-09-16T06:23:05.874Z,100.00
2022-09-16T06:24:10.114Z,100.00
2022-09-16T06:25:14.382Z,100.00
2022-09-16T06:26:18.598Z,100.00
2022-09-16T06:27:22.884Z,100.00
2022-09-16T06:28:27.282Z,100.00
2022-09-16T06:29:31.519Z,100.00
2022-09-16T06:30:35.947Z,100.00
2022-09-16T06:31:40.262Z,100.00
2022-09-16T06:32:44.550Z,100.00
2022-09-16T06:33:49.839Z,100.00
2022-09-16T06:34:53.801Z,100.00
2022-09-16T06:35:58.193Z,100.00
2022-09-16T06:37:02.654Z,100.00
2022-09-16T06:38:06.985Z,100.00
2022-09-16T06:39:11.310Z,100.00
2022-09-16T06:40:15.853Z,100.00
2022-09-16T06:41:19.885Z,100.00
2022-09-16T06:42:24.190Z,100.00
2022-09-16T06:43:28.572Z,100.00
2022-09-16T06:44:32.927Z,100.00
2022-09-16T06:45:37.189Z,100.00
2022-09-16T06:46:41.524Z,100.00
2022-09-16T06:47:45.814Z,100.00
2022-09-16T06:48:50.127Z,100.00
2022-09-16T06:49:54.438Z,100.00
2022-09-16T06:50:58.848Z,100.00
2022-09-16T06:52:03.105Z,100.00
2022-09-16T06:53:07.498Z,100.00
2022-09-16T06:54:12.823Z,100.00
2022-09-16T06:55:16.766Z,100.00
2022-09-16T06:56:21.261Z,100.00
2022-09-16T06:57:25.431Z,100.00
2022-09-16T06:58:29.814Z,100.00
2022-09-16T06:59:34.104Z,100.00
2022-09-16T07:00:38.446Z,100.00
2022-09-16T07:01:42.741Z,100.00
2022-09-16T07:02:47.194Z,100.00
2022-09-16T07:03:51.453Z,100.00
2022-09-16T07:04:55.727Z,100.00
2022-09-16T07:06:00.112Z,100.00
2022-09-16T07:07:09.578Z,100.00
2022-09-16T07:08:08.754Z,100.00
2022-09-16T07:09:13.003Z,100.00
2022-09-16T07:10:17.349Z,100.00
2022-09-16T07:11:21.737Z,100.00
2022-09-16T07:12:26.151Z,100.00
2022-09-16T07:13:30.351Z,100.00
2022-09-16T07:14:34.591Z,100.00
2022-09-16T07:15:56.309Z,100.00
2022-09-16T07:16:43.325Z,100.00
2022-09-16T07:17:47.624Z,100.00
2022-09-16T07:18:51.977Z,100.00
2022-09-16T07:20:10.302Z,100.00
2022-09-16T07:21:13.587Z,100.00
2022-09-16T07:22:17.739Z,100.00
2022-09-16T07:23:22.036Z,100.00
2022-09-16T07:24:26.326Z,100.00
2022-09-16T07:25:35.538Z,100.00
2022-09-16T07:26:34.897Z,100.00
2022-09-16T07:27:39.385Z,100.00
2022-09-16T07:28:46.477Z,100.00
2022-09-16T07:29:49.962Z,100.00
2022-09-16T07:30:54.336Z,100.00
2022-09-16T07:31:58.553Z,100.00
2022-09-16T07:33:02.821Z,100.00
2022-09-16T07:34:07.241Z,100.00
2022-09-16T07:35:11.465Z,100.00
2022-09-16T07:36:15.734Z,100.00
2022-09-16T07:37:20.114Z,100.00
2022-09-16T07:38:24.433Z,100.00
2022-09-16T07:39:28.748Z,100.00
2022-09-16T07:40:33.262Z,100.00
2022-09-16T07:41:37.421Z,100.00
2022-09-16T07:42:41.890Z,100.00
2022-09-16T07:43:46.107Z,100.00
2022-09-16T07:44:50.363Z,100.00
2022-09-16T07:45:54.731Z,100.00
2022-09-16T07:46:59.002Z,100.00
2022-09-16T07:48:03.299Z,100.00
2022-09-16T07:49:07.741Z,100.00
2022-09-16T07:50:11.963Z,100.00
2022-09-16T07:51:16.257Z,99.73
2022-09-16T07:52:20.542Z,99.64
2022-09-16T07:53:26.367Z,99.61
2022-09-16T07:54:29.176Z,99.44
2022-09-16T07:55:33.638Z,99.25
2022-09-16T07:56:37.840Z,99.32
2022-09-16T07:57:42.207Z,99.30
2022-09-16T07:58:46.659Z,99.36
2022-09-16T07:59:50.796Z,99.44
2022-09-16T08:00:55.134Z,99.40
2022-09-16T08:01:59.525Z,99.51
2022-09-16T08:03:03.703Z,99.58
2022-09-16T08:04:07.984Z,99.66
2022-09-16T08:05:12.265Z,99.66
2022-09-16T08:06:16.559Z,99.62
2022-09-16T08:07:20.859Z,99.55
2022-09-16T08:08:25.122Z,99.47
2022-09-16T08:09:50.653Z,99.52
2022-09-16T08:10:33.747Z,99.57
2022-09-16T08:11:38.068Z,99.50
2022-09-16T08:12:42.434Z,99.20
2022-09-16T08:13:46.759Z,98.96
2022-09-16T08:14:51.083Z,98.86
2022-09-16T08:15:55.254Z,98.38
2022-09-16T08:16:59.717Z,98.18
2022-09-16T08:18:03.955Z,97.96
2022-09-16T08:19:08.363Z,97.47
2022-09-16T08:20:12.694Z,97.52
2022-09-16T08:21:16.920Z,97.01
2022-09-16T08:22:21.214Z,97.03
2022-09-16T08:23:25.581Z,97.13
2022-09-16T08:24:30.004Z,96.98
2022-09-16T08:25:34.353Z,96.68
2022-09-16T08:26:38.589Z,96.71
2022-09-16T08:27:42.966Z,96.22
2022-09-16T08:29:07.276Z,95.67
2022-09-16T08:29:51.541Z,95.52
2022-09-16T08:30:56.013Z,95.39
2022-09-16T08:32:00.340Z,95.45
2022-09-16T08:33:04.506Z,95.03
2022-09-16T08:34:08.891Z,94.59
2022-09-16T08:35:13.193Z,94.83
2022-09-16T08:36:17.466Z,94.67
2022-09-16T08:37:21.754Z,94.40
2022-09-16T08:38:26.158Z,94.07
2022-09-16T08:39:30.522Z,93.69
2022-09-16T08:40:34.871Z,93.57
2022-09-16T08:41:39.184Z,93.63
2022-09-16T08:42:43.449Z,93.53
2022-09-16T08:43:47.775Z,93.45
2022-09-16T08:44:52.073Z,93.14
2022-09-16T08:45:56.594Z,92.89
2022-09-16T08:47:00.853Z,92.98
2022-09-16T08:48:05.169Z,92.58
2022-09-16T08:49:09.508Z,92.21
2022-09-16T08:50:13.827Z,92.45
2022-09-16T08:51:18.086Z,92.58
2022-09-16T08:52:22.350Z,92.22
2022-09-16T08:53:26.662Z,92.36
2022-09-16T08:54:31.036Z,92.23
2022-09-16T08:55:35.390Z,92.63
2022-09-16T08:56:42.817Z,92.78
2022-09-16T08:57:44.073Z,92.86
2022-09-16T08:58:48.423Z,92.77
2022-09-16T08:59:52.757Z,92.54
2022-09-16T09:00:57.306Z,92.61
2022-09-16T09:02:06.508Z,91.96
2022-09-16T09:03:05.909Z,91.82
2022-09-16T09:04:10.094Z,91.77
2022-09-16T09:05:14.420Z,91.43
2022-09-16T09:06:18.884Z,90.90
2022-09-16T09:07:23.113Z,91.05
2022-09-16T09:08:27.500Z,91.25
2022-09-16T09:09:31.837Z,90.71
2022-09-16T09:10:36.169Z,89.67
2022-09-16T09:11:40.472Z,88.88
2022-09-16T09:12:45.447Z,88.70
2022-09-16T09:13:49.081Z,88.46
2022-09-16T09:14:53.394Z,88.87
2022-09-16T09:15:57.742Z,89.02
2022-09-16T09:17:02.118Z,88.98
2022-09-16T09:18:06.381Z,89.16
2022-09-16T09:19:10.893Z,89.43
2022-09-16T09:20:15.122Z,89.23
2022-09-16T09:21:19.403Z,89.11
2022-09-16T09:22:23.822Z,89.02
2022-09-16T09:23:28.064Z,88.59
2022-09-16T09:24:32.330Z,88.57
2022-09-16T09:25:36.715Z,88.65
2022-09-16T09:26:41.015Z,88.71
2022-09-16T09:27:45.365Z,88.47
2022-09-16T09:28:49.758Z,87.68
2022-09-16T09:29:54.011Z,87.38
2022-09-16T09:30:58.495Z,87.46
2022-09-16T09:32:02.806Z,87.67
2022-09-16T09:33:22.219Z,87.61
2022-09-16T09:34:11.434Z,87.43
2022-09-16T09:35:15.909Z,87.85
2022-09-16T09:36:20.151Z,88.13
2022-09-16T09:37:24.499Z,88.21
2022-09-16T09:38:28.741Z,87.76
2022-09-16T09:39:33.296Z,86.83
2022-09-16T09:40:37.759Z,87.31
2022-09-16T09:41:41.919Z,87.96
2022-09-16T09:42:46.356Z,88.33
2022-09-16T09:43:50.603Z,88.29
2022-09-16T09:44:56.248Z,88.24
2022-09-16T09:45:59.378Z,88.04
2022-09-16T09:47:03.691Z,87.84
2022-09-16T09:48:07.949Z,87.53
2022-09-16T09:49:12.298Z,87.37
2022-09-16T09:50:19.736Z,87.00
2022-09-16T09:51:23.183Z,86.45
2022-09-16T09:52:27.499Z,86.19
2022-09-16T09:53:31.904Z,85.28
2022-09-16T09:54:39.347Z,84.63
2022-09-16T09:55:42.823Z,84.36
2022-09-16T09:56:47.269Z,84.73
2022-09-16T09:57:51.612Z,84.58
2022-09-16T09:58:56.002Z,84.68
2022-09-16T10:00:00.284Z,84.67
2022-09-16T10:01:04.730Z,84.59
2022-09-16T10:02:09.002Z,84.85
2022-09-16T10:03:13.615Z,85.29
2022-09-16T10:04:17.774Z,84.95
2022-09-16T10:05:22.230Z,85.16
2022-09-16T10:06:26.456Z,85.28
2022-09-16T10:07:30.924Z,85.08
2022-09-16T10:08:35.274Z,84.10
2022-09-16T10:09:39.597Z,83.86
2022-09-16T10:10:43.962Z,83.96
2022-09-16T10:11:48.454Z,83.50
2022-09-16T10:12:52.890Z,83.27
2022-09-16T10:13:57.285Z,83.42
2022-09-16T10:15:15.772Z,82.59
2022-09-16T10:16:19.239Z,82.89
2022-09-16T10:17:23.526Z,82.77
2022-09-16T10:18:27.934Z,82.56
2022-09-16T10:19:32.252Z,82.59
2022-09-16T10:20:36.767Z,82.58
2022-09-16T10:21:40.998Z,82.95
2022-09-16T10:22:45.418Z,83.27
2022-09-16T10:23:49.763Z,82.97
2022-09-16T10:24:54.164Z,83.24
2022-09-16T10:25:58.638Z,83.14
2022-09-16T10:27:02.968Z,82.21
2022-09-16T10:28:07.329Z,82.45
2022-09-16T10:29:11.686Z,82.55
2022-09-16T10:30:16.262Z,81.49
2022-09-16T10:31:20.614Z,81.25
2022-09-16T10:32:24.954Z,81.58
2022-09-16T10:33:29.299Z,81.90
2022-09-16T10:34:33.714Z,81.44
2022-09-16T10:35:38.175Z,81.78
2022-09-16T10:36:42.611Z,82.10
2022-09-16T10:37:46.832Z,81.43
2022-09-16T10:38:51.216Z,81.88
2022-09-16T10:39:55.648Z,82.70
2022-09-16T10:41:02.918Z,83.17
2022-09-16T10:42:06.465Z,83.81
2022-09-16T10:43:10.778Z,84.33
2022-09-16T10:44:17.474Z,84.79
2022-09-16T10:45:19.554Z,85.34
2022-09-16T10:46:23.969Z,86.37
2022-09-16T10:47:28.289Z,87.29
2022-09-16T10:48:32.656Z,87.18
2022-09-16T10:49:37.033Z,87.02
2022-09-16T10:50:41.439Z,86.53
2022-09-16T10:51:45.929Z,85.99
2022-09-16T10:52:50.215Z,85.71
2022-09-16T10:53:54.615Z,85.72
2022-09-16T10:54:58.973Z,85.59
2022-09-16T10:56:03.440Z,85.52
2022-09-16T10:57:07.710Z,85.30
2022-09-16T10:58:12.148Z,85.05
2022-09-16T10:59:16.508Z,84.01
2022-09-16T11:00:20.948Z,83.03
2022-09-16T11:01:26.351Z,81.14
2022-09-16T11:02:29.671Z,80.47
2022-09-16T11:03:34.129Z,80.05
2022-09-16T11:04:38.474Z,79.60
2022-09-16T11:05:42.943Z,79.83
2022-09-16T11:06:47.277Z,79.47
2022-09-16T11:07:51.809Z,79.87
2022-09-16T11:08:56.111Z,80.08
2022-09-16T11:10:00.503Z,80.37
2022-09-16T11:11:09.716Z,80.27
2022-09-16T11:12:11.020Z,80.28
2022-09-16T11:13:13.641Z,80.18
2022-09-16T11:14:17.998Z,80.40
2022-09-16T11:15:22.367Z,80.54
2022-09-16T11:16:26.817Z,80.51
2022-09-16T11:17:31.046Z,80.10
2022-09-16T11:18:35.407Z,80.07
2022-09-16T11:19:39.760Z,80.56
2022-09-16T11:20:44.129Z,80.91
2022-09-16T11:21:48.454Z,81.12
2022-09-16T11:22:52.815Z,81.21
2022-09-16T11:23:57.291Z,80.86
2022-09-16T11:25:01.547Z,80.97
2022-09-16T11:26:05.924Z,80.48
2022-09-16T11:27:10.313Z,79.97
2022-09-16T11:28:14.691Z,80.10
2022-09-16T11:29:19.150Z,80.12
2022-09-16T11:30:23.458Z,80.07
2022-09-16T11:31:27.898Z,80.28
2022-09-16T11:32:32.251Z,80.17
2022-09-16T11:33:36.636Z,80.34
2022-09-16T11:34:41.020Z,80.43
2022-09-16T11:35:45.349Z,80.36
2022-09-16T11:36:49.747Z,80.68
2022-09-16T11:37:54.127Z,80.84
2022-09-16T11:38:58.574Z,80.62
2022-09-16T11:40:03.112Z,80.52
2022-09-16T11:41:07.229Z,80.71
2022-09-16T11:42:11.605Z,80.72
2022-09-16T11:43:15.968Z,80.92
2022-09-16T11:44:20.326Z,81.16
2022-09-16T11:45:24.781Z,81.05
2022-09-16T11:46:29.251Z,81.11
2022-09-16T11:47:37.020Z,81.03
2022-09-16T11:48:37.861Z,81.35
2022-09-16T11:49:42.309Z,81.39
2022-09-16T11:50:46.633Z,81.22
2022-09-16T11:51:51.041Z,80.75
2022-09-16T11:52:59.884Z,80.61
2022-09-16T11:54:00.623Z,80.77
2022-09-16T11:55:04.234Z,80.87
2022-09-16T11:56:08.677Z,81.13
2022-09-16T11:57:15.009Z,81.59
2022-09-16T11:58:17.266Z,81.71
2022-09-16T11:59:21.713Z,81.90
2022-09-16T12:00:26.041Z,82.04
2022-09-16T12:01:30.555Z,82.14
2022-09-16T12:02:34.927Z,82.24
2022-09-16T12:03:39.169Z,82.35
2022-09-16T12:04:43.560Z,82.58
2022-09-16T12:05:47.974Z,82.78
2022-09-16T12:06:52.340Z,82.63
2022-09-16T12:07:56.743Z,82.42
2022-09-16T12:09:01.133Z,82.39
2022-09-16T12:10:05.525Z,82.31
2022-09-16T12:11:10.008Z,81.98
2022-09-16T12:12:14.502Z,82.23
2022-09-16T12:13:18.804Z,82.06
2022-09-16T12:14:23.230Z,82.02
2022-09-16T12:15:27.673Z,81.86
2022-09-16T12:16:32.619Z,81.63
2022-09-16T12:17:36.327Z,81.61
2022-09-16T12:18:40.714Z,81.73
2022-09-16T12:19:45.092Z,81.34
2022-09-16T12:20:49.565Z,80.70
2022-09-16T12:21:57.806Z,81.13
2022-09-16T12:22:58.311Z,81.21
2022-09-16T12:24:02.705Z,81.33
2022-09-16T12:25:07.074Z,81.81
2022-09-16T12:26:11.444Z,81.67
2022-09-16T12:27:15.844Z,80.99
2022-09-16T12:28:20.339Z,80.78
2022-09-16T12:29:24.699Z,80.60
2022-09-16T12:30:29.074Z,79.65
2022-09-16T12:31:33.512Z,78.87
2022-09-16T12:32:37.914Z,77.47
2022-09-16T12:33:42.347Z,76.87
2022-09-16T12:34:46.680Z,75.78
2022-09-16T12:35:51.077Z,76.00
2022-09-16T12:36:55.450Z,76.74
2022-09-16T12:37:59.872Z,76.33
2022-09-16T12:39:04.216Z,76.72
2022-09-16T12:40:08.773Z,77.51
2022-09-16T12:41:12.996Z,76.41
2022-09-16T12:42:17.379Z,76.62
2022-09-16T12:43:22.006Z,77.32
2022-09-16T12:44:34.662Z,77.50
2022-09-16T12:45:30.559Z,77.30
2022-09-16T12:46:34.939Z,77.54
2022-09-16T12:47:39.245Z,76.64
2022-09-16T12:48:43.626Z,76.38
2022-09-16T12:49:48.026Z,76.43
2022-09-16T12:50:52.457Z,76.22
2022-09-16T12:51:56.801Z,76.25
2022-09-16T12:53:01.182Z,76.31
2022-09-16T12:54:05.597Z,76.57
2022-09-16T12:55:09.997Z,76.43
2022-09-16T12:56:14.454Z,76.45
2022-09-16T12:57:18.795Z,76.52
2022-09-16T12:58:23.139Z,76.19
2022-09-16T12:59:27.698Z,76.45
2022-09-16T13:00:31.923Z,76.50
2022-09-16T13:01:36.529Z,76.58
2022-09-16T13:02:41.063Z,76.51
2022-09-16T13:03:45.201Z,77.15
2022-09-16T13:04:49.618Z,77.58
2022-09-16T13:05:54.080Z,77.59
2022-09-16T13:06:58.381Z,77.31
2022-09-16T13:08:02.763Z,76.94
2022-09-16T13:09:07.225Z,77.17
2022-09-16T13:10:11.529Z,77.22
2022-09-16T13:12:41.501Z,77.45
2022-09-16T13:13:24.813Z,77.68
2022-09-16T13:14:29.111Z,77.76
2022-09-16T13:15:33.780Z,77.81
2022-09-16T13:16:37.926Z,77.57
2022-09-16T13:17:42.419Z,77.11
2022-09-16T13:18:46.793Z,76.94
2022-09-16T13:19:51.158Z,76.91
2022-09-16T13:20:55.530Z,76.96
2022-09-16T13:21:59.996Z,76.99
2022-09-16T13:23:04.357Z,77.17
2022-09-16T13:24:08.701Z,77.30
2022-09-16T13:25:13.120Z,77.03
2022-09-16T13:26:17.517Z,76.86
2022-09-16T13:27:21.863Z,77.26
2022-09-16T13:28:26.337Z,77.70
2022-09-16T13:29:30.728Z,77.30
2022-09-16T13:30:35.078Z,77.31
2022-09-16T13:31:39.700Z,76.56
2022-09-16T13:32:43.846Z,76.78
2022-09-16T13:33:48.268Z,76.59
2022-09-16T13:34:52.622Z,76.63
2022-09-16T13:35:56.997Z,75.92